Terminal Aerodrome Forecast
Issued by NWS

Home | Current Version | Previous Version | Text Only | Print | Product List | Glossary On
Versions: 1 2 3 4 5 6 7 8 9 10 11 12 13 14 15 16 17 18
000
FTAK31 PAFA 280756 AAC
TAFAOR
TAF AMD
PAOR 280756Z 2808/0106 32006KT 5SM -SN BR SCT020 OVC070
     FM281000 31005KT 2SM -SN BR BKN015 BKN050
     FM282100 31010G16KT P6SM OVC100
     FM010300 31008G16KT P6SM BKN250=

USA.gov is the U.S. government's official web portal to all federal, state and local government web resources and services.